logo
Search for airport 
image banner adimage banner adimage banner ad
image banner ad

YWEA - Wanella Station

Located in Coppabella, Australia

ICAO - , IATA -

Data provided by Airmate  

General information

Coordinates: S21°53'47" E148°22'11"
Elevation is 785 feet MSL.
Magnetic variation is 8° East
View others Airports in Queensland

Operational data

Special qualification required
Current time UTC:
Current local time:
Weather at : - ( 0 km )
METAR: KSAR 231743Z AUTO 30008G17KT 10SM CLR 11/M02 A2987 RMK AO2
View NOTAMs / SUP AIP / TFR affecting this airport [VIEW]
Communications frequencies: [VIEW]

Runways:

RWY identifierQFULength (ft)Width (ft)SurfaceLDA (ft)
24251°373947ASPH
0671°373947ASPH

Airport contact information

Address: Coppabella Australia

Satellite view of YWEA